地図

経路データ

SID SEASON NUMBER BASIN SUBBASIN NAME ISO_TIME NATURE LAT LON WMO_WIND WMO_PRES WMO_AGENCY TRACK_TYPE DIST2LAND LANDFALL IFLAG USA_AGENCY USA_ATCF_ID USA_LAT USA_LON USA_RECORD USA_STATUS USA_WIND USA_PRES USA_SSHS USA_R34_NE USA_R34_SE USA_R34_SW USA_R34_NW USA_R50_NE USA_R50_SE USA_R50_SW USA_R50_NW USA_R64_NE USA_R64_SE USA_R64_SW USA_R64_NW USA_POCI USA_ROCI USA_RMW USA_EYE TOKYO_LAT TOKYO_LON TOKYO_GRADE TOKYO_WIND TOKYO_PRES TOKYO_R50_DIR TOKYO_R50_LONG TOKYO_R50_SHORT TOKYO_R30_DIR TOKYO_R30_LONG TOKYO_R30_SHORT TOKYO_LAND CMA_LAT CMA_LON CMA_CAT CMA_WIND CMA_PRES HKO_LAT HKO_LON HKO_CAT HKO_WIND HKO_PRES NEWDELHI_LAT NEWDELHI_LON NEWDELHI_GRADE NEWDELHI_WIND NEWDELHI_PRES NEWDELHI_CI NEWDELHI_DP NEWDELHI_POCI REUNION_LAT REUNION_LON REUNION_TYPE REUNION_WIND REUNION_PRES REUNION_TNUM REUNION_CI REUNION_RMW REUNION_R34_NE REUNION_R34_SE REUNION_R34_SW REUNION_R34_NW REUNION_R50_NE REUNION_R50_SE REUNION_R50_SW REUNION_R50_NW REUNION_R64_NE REUNION_R64_SE REUNION_R64_SW REUNION_R64_NW BOM_LAT BOM_LON BOM_TYPE BOM_WIND BOM_PRES BOM_TNUM BOM_CI BOM_RMW BOM_R34_NE BOM_R34_SE BOM_R34_SW BOM_R34_NW BOM_R50_NE BOM_R50_SE BOM_R50_SW BOM_R50_NW BOM_R64_NE BOM_R64_SE BOM_R64_SW BOM_R64_NW BOM_ROCI BOM_POCI BOM_EYE BOM_POS_METHOD BOM_PRES_METHOD NADI_LAT NADI_LON NADI_CAT NADI_WIND NADI_PRES WELLINGTON_LAT WELLINGTON_LON WELLINGTON_WIND WELLINGTON_PRES DS824_LAT DS824_LON DS824_STAGE DS824_WIND DS824_PRES TD9636_LAT TD9636_LON TD9636_STAGE TD9636_WIND TD9636_PRES TD9635_LAT TD9635_LON TD9635_WIND TD9635_PRES TD9635_ROCI NEUMANN_LAT NEUMANN_LON NEUMANN_CLASS NEUMANN_WIND NEUMANN_PRES MLC_LAT MLC_LON MLC_CLASS MLC_WIND MLC_PRES USA_GUST BOM_GUST BOM_GUST_PER REUNION_GUST REUNION_GUST_PER USA_SEAHGT USA_SEARAD_NE USA_SEARAD_SE USA_SEARAD_SW USA_SEARAD_NW STORM_SPEED STORM_DIR
1988260N15157 1988 78 WP MM LEE 1988-09-16 06:00:00 NR 15.0000 157.000 main 2093 2090 O_________O___ jtwc_wp WP181988 15.0000 157.000 25 -1 15.0000 157.000 1 25 19 294
1988260N15157 1988 78 WP MM LEE 1988-09-16 09:00:00 NR 15.3759 156.118 main 2106 2104 P_________P___ WP181988 15.3807 156.108 25 -1 15.3712 156.127 1 25 19 295
1988260N15157 1988 78 WP MM LEE 1988-09-16 12:00:00 NR 15.8000 155.200 main 2125 2123 O_________O___ jtwc_wp WP181988 15.8000 155.200 25 -1 15.8000 155.200 1 25 20 297
1988260N15157 1988 78 WP MM LEE 1988-09-16 15:00:00 NR 16.3040 154.225 main 2159 2159 P_________P___ WP181988 16.2846 154.265 25 -1 16.3234 154.186 1 25 22 299
1988260N15157 1988 78 WP MM LEE 1988-09-16 18:00:00 NR 16.8421 153.221 main 2198 2198 O_________P___ jtwc_wp WP181988 16.8000 153.300 25 -1 16.8842 153.142 1 25 22 299
1988260N15157 1988 78 WP MM LEE 1988-09-16 21:00:00 NR 17.3814 152.204 main 2246 2217 P_________P___ WP181988 17.3603 152.256 25 -1 17.4024 152.152 1 25 21 298
1988260N15157 1988 78 WP MM LEE 1988-09-17 00:00:00 NR 17.8000 151.300 main 2217 2163 O_________O___ jtwc_wp WP181988 17.8000 151.300 25 -1 17.8000 151.300 1 25 16 291
1988260N15157 1988 78 WP MM LEE 1988-09-17 03:00:00 NR 17.9797 150.602 main 2163 2139 P_________P___ WP181988 17.9746 150.537 25 -1 17.9849 150.668 1 25 12 281
1988260N15157 1988 78 WP MM LEE 1988-09-17 06:00:00 NR 18.0235 150.093 main 2139 2125 O_________P___ jtwc_wp WP181988 18.0000 150.000 25 -1 18.0470 150.187 1 25 8 273
1988260N15157 1988 78 WP MM LEE 1988-09-17 09:00:00 NR 18.0252 149.751 main 2125 2112 P_________P___ WP181988 18.0146 149.690 25 -1 18.0357 149.813 1 25 6 268
1988260N15157 1988 78 WP MM LEE 1988-09-17 12:00:00 NR 18.0000 149.500 main 2112 2099 O_________O___ jtwc_wp WP181988 18.0000 149.500 25 -1 18.0000 149.500 1 25 5 269
1988260N15157 1988 78 WP MM LEE 1988-09-17 15:00:00 NR 18.0129 149.222 main 2099 2090 P_________P___ WP181988 17.9999 149.258 25 -1 18.0259 149.187 1 25 5 272
1988260N15157 1988 78 WP MM LEE 1988-09-17 18:00:00 NR 18.0183 148.960 main 2090 2078 O_________P___ jtwc_wp WP181988 18.0000 149.000 25 -1 18.0366 148.920 1 25 5 271
1988260N15157 1988 78 WP MM LEE 1988-09-17 21:00:00 NR 18.0220 148.699 main 2078 2065 P_________P___ WP181988 18.0149 148.730 25 -1 18.0291 148.668 1 25 5 268
1988260N15157 1988 78 WP MM LEE 1988-09-18 00:00:00 NR 18.0000 148.400 main 2065 2054 O_________O___ jtwc_wp WP181988 18.0000 148.400 25 -1 18.0000 148.400 1 25 7 261
1988260N15157 1988 78 WP MM LEE 1988-09-18 03:00:00 NR 17.9189 148.015 main 2060 2052 P_________P___ WP181988 17.9077 147.942 25 -1 17.9301 148.087 1 25 8 256
1988260N15157 1988 78 WP MM LEE 1988-09-18 06:00:00 NR 17.8211 147.626 main 2056 2045 O_________P___ jtwc_wp WP181988 17.8000 147.500 25 -1 17.8421 147.752 1 25 7 256
1988260N15157 1988 78 WP MM LEE 1988-09-18 09:00:00 NR 17.7464 147.309 main 2055 2045 P_________P___ WP181988 17.7348 147.228 25 -1 17.7581 147.391 1 25 6 259
1988260N15157 1988 78 WP MM LEE 1988-09-18 12:00:00 NR 17.7000 147.000 main 2045 2035 O_________O___ jtwc_wp WP181988 17.7000 147.000 25 -1 17.7000 147.000 1 25 6 265
1988260N15157 1988 78 WP MM LEE 1988-09-18 15:00:00 NR 17.6900 146.692 main 2035 2022 P_________P___ WP181988 17.6847 146.752 25 -1 17.6952 146.632 1 25 7 271
1988260N15157 1988 78 WP MM LEE 1988-09-18 18:00:00 NR 17.7091 146.314 main 2022 1996 O_________P___ jtwc_wp WP181988 17.7000 146.400 25 -1 17.7183 146.228 1 25 8 274
1988260N15157 1988 78 WP MM LEE 1988-09-18 21:00:00 NR 17.7536 145.814 main 1996 1978 P_________P___ WP181988 17.7499 145.868 25 -1 17.7573 145.760 1 25 11 275
1988260N15157 1988 78 WP MM LEE 1988-09-19 00:00:00 NR 17.8000 145.200 main 1978 1946 O_________O___ jtwc_wp WP181988 17.8000 145.200 25 -1 17.8000 145.200 1 25 13 273
1988260N15157 1988 78 WP MM LEE 1988-09-19 03:00:00 NR 17.8108 144.497 main 1946 1904 P_________P___ WP181988 17.7999 144.480 25 -1 17.8216 144.514 1 25 17 271
1988260N15157 1988 78 WP MM LEE 1988-09-19 06:00:00 TS 17.8274 143.446 1008 tokyo main 1900 1859 OOO_______P___ jtwc_wp WP181988 17.8000 143.700 25 -1 17.7000 142.700 2 1008 0 0 0 18.0000 142.000 0 19 1008 17.8434 143.740 1 25 19 271
1988260N15157 1988 78 WP MM LEE 1988-09-19 09:00:00 TS 17.8604 142.501 main 1855 1828 PPP_______P___ WP181988 17.8424 142.900 25 -1 17.7503 142.113 2 1008 0 0 17.9908 141.255 0 19 1007 17.8683 142.920 1 25 18 273
1988260N15157 1988 78 WP MM LEE 1988-09-19 12:00:00 TS 17.9067 141.607 1008 tokyo main 1824 1772 OOOO______O___ jtwc_wp WP181988 17.9000 142.100 25 -1 17.8000 141.500 2 1008 0 0 0 18.0000 140.600 0 19 1006 18.0000 141.000 TD 25 1007 17.9000 142.100 1 25 16 273
1988260N15157 1988 78 WP MM LEE 1988-09-19 15:00:00 TS 17.9503 140.858 main 1775 1715 PPPP______P___ WP181988 17.9496 141.342 25 -1 17.8499 140.850 2 1007 0 0 18.0422 140.098 0 21 1005 17.9929 140.485 TD 25 1007 17.9382 141.327 1 25 13 274
1988260N15157 1988 78 WP MM LEE 1988-09-19 18:00:00 TS 17.9967 140.224 1006 tokyo main 1706 1656 OOOO______P___ jtwc_wp WP181988 18.0000 140.600 25 -1 17.9000 140.200 2 1006 0 0 0 18.1000 139.700 1 23 1004 18.0000 140.000 TD 25 1007 17.9843 140.563 1 25 12 275
1988260N15157 1988 78 WP MM LEE 1988-09-19 21:00:00 TS 18.0445 139.632 main 1646 1601 PPPP______P___ WP181988 18.0423 139.842 25 -1 17.9572 139.593 2 1006 0 0 18.1498 139.350 1 23 1004 18.0347 139.557 TD 27 1006 18.0383 139.817 1 25 11 275
1988260N15157 1988 78 WP MM LEE 1988-09-20 00:00:00 TS 18.1000 139.060 1006 tokyo main 1601 1547 OOOO______O___ jtwc_wp WP181988 18.1000 139.100 25 -1 18.0000 139.000 2 1006 0 0 0 18.2000 139.000 1 23 1004 18.1000 139.100 TD 30 1005 18.1000 139.100 1 25 11 276
1988260N15157 1988 78 WP MM LEE 1988-09-20 03:00:00 TS 18.1671 138.479 main 1547 1490 PPPP______P___ WP181988 18.1998 138.378 25 -1 18.0072 138.407 2 1005 0 0 18.2568 138.632 1 26 1003 18.1923 138.580 TD 30 1004 18.1794 138.397 1 26 11 277
1988260N15157 1988 78 WP MM LEE 1988-09-20 06:00:00 TS 18.2329 137.865 1004 tokyo main 1490 1428 OOOO______P___ jtwc_wp WP181988 18.3000 137.700 25 -1 18.0000 137.800 2 1004 0 0 0 18.3000 138.100 1 29 1002 18.3000 138.000 TD 30 1004 18.2643 137.726 1 27 12 275
1988260N15157 1988 78 WP MM LEE 1988-09-20 09:00:00 TS 18.2845 137.180 main 1428 1363 PPPP______P___ WP181988 18.3647 137.077 27 -1 17.9999 137.150 2 1003 0 0 18.3009 137.222 1 29 1002 18.4150 137.358 TD 30 1004 18.3421 137.091 1 28 13 274
1988260N15157 1988 78 WP MM LEE 1988-09-20 12:00:00 TS 18.3200 136.500 1002 tokyo main 1363 1307 OOOO______O___ jtwc_wp WP181988 18.4000 136.500 30 -1 18.0000 136.500 2 1002 0 0 0 18.3000 136.300 1 29 1002 18.5000 136.700 TD 30 1004 18.4000 136.500 1 30 12 273
1988260N15157 1988 78 WP MM LEE 1988-09-20 15:00:00 TS 18.3421 135.900 main 1307 1262 PPPP______P___ WP181988 18.4074 135.927 30 -1 17.9997 135.900 2 1001 0 0 18.3570 135.633 1 29 1001 18.5299 136.077 TD 32 1001 18.4163 135.965 1 31 11 271
1988260N15157 1988 78 WP MM LEE 1988-09-20 18:00:00 TS 18.3427 135.354 1000 tokyo main 1262 1217 OOOO______P___ jtwc_wp WP181988 18.4000 135.400 30 -1 18.0000 135.300 2 1000 0 0 0 18.4000 135.100 1 29 1000 18.5000 135.500 TS 35 998 18.4135 135.469 1 32 10 268
1988260N15157 1988 78 WP MM LEE 1988-09-20 21:00:00 TS 18.3106 134.839 main 1208 1173 PPPP______P___ WP181988 18.3997 134.950 32 -1 17.9851 134.627 2 998 0 0 18.3572 134.627 1 29 999 18.4071 135.000 TS 35 997 18.4039 134.990 1 33 10 266
1988260N15157 1988 78 WP MM LEE 1988-09-21 00:00:00 TS 18.2800 134.340 35 996 tokyo main 1164 1118 OOOO______O___ jtwc_wp WP181988 18.4000 134.500 35 0 18.0000 134.000 3 35 996 0 9 100 100 0 18.3000 134.200 1 29 998 18.3000 134.500 TS 35 997 18.4000 134.500 2 35 10 268
1988260N15157 1988 78 WP MM LEE 1988-09-21 03:00:00 TS 18.2766 133.817 main 1118 1070 PPPP______P___ WP181988 18.3925 133.965 40 0 18.0772 133.520 3 35 996 0 9 100 100 18.2924 133.750 1 33 996 18.2276 133.900 TS 37 996 18.3935 133.948 2 38 10 271
1988260N15157 1988 78 WP MM LEE 1988-09-21 06:00:00 TS 18.2995 133.297 35 996 tokyo main 1070 1023 OOOO______P___ jtwc_wp WP181988 18.4000 133.400 45 0 18.2000 133.100 3 35 996 0 9 100 100 0 18.3000 133.300 2 38 995 18.2000 133.300 TS 40 995 18.3976 133.384 2 42 10 274
1988260N15157 1988 78 WP MM LEE 1988-09-21 09:00:00 TS 18.3405 132.788 main 1023 982 PPPP______P___ WP181988 18.4275 132.835 47 0 18.3348 132.657 3 37 994 0 9 112 112 18.2849 132.850 2 38 993 18.2274 132.770 TS 42 992 18.4279 132.829 2 46 10 277
1988260N15157 1988 78 WP MM LEE 1988-09-21 12:00:00 TS 18.4200 132.300 40 992 tokyo main 982 952 OOOO______O___ jtwc_wp WP181988 18.5000 132.300 50 0 18.5000 132.200 3 40 992 0 9 125 125 0 18.3000 132.400 2 38 992 18.3000 132.300 TS 45 990 18.5000 132.300 2 50 9 282
1988260N15157 1988 78 WP MM LEE 1988-09-21 15:00:00 TS 18.5298 131.838 main 943 920 PPPP______P___ WP181988 18.6273 131.835 52 0 18.6850 131.692 3 42 991 0 9 125 125 18.3549 131.950 2 43 988 18.3548 131.892 TS 47 987 18.6271 131.821 2 51 9 288
1988260N15157 1988 78 WP MM LEE 1988-09-21 18:00:00 TS 18.6993 131.394 45 990 tokyo main 920 899 OOOO______P___ jtwc_wp WP181988 18.8000 131.400 55 0 18.9000 131.200 3 45 990 0 9 125 125 0 18.5000 131.500 3 48 985 18.5000 131.500 STS 50 985 18.7966 131.370 2 52 9 296
1988260N15157 1988 78 WP MM LEE 1988-09-21 21:00:00 TS 18.9465 130.951 main 899 867 PPPP______P___ WP181988 18.9924 130.942 55 0 19.1499 130.777 3 45 990 0 9 125 125 18.7699 131.050 3 48 985 18.8275 131.050 STS 45 988 18.9928 130.934 2 53 10 302
1988260N15157 1988 78 WP MM LEE 1988-09-22 00:00:00 TS 19.2200 130.520 45 990 tokyo main 867 828 OOOO______O___ jtwc_wp WP181988 19.2000 130.500 55 0 19.4000 130.400 3 45 990 0 9 125 125 0 19.1000 130.600 3 48 985 19.2000 130.600 TS 40 992 19.2000 130.500 2 55 10 303
1988260N15157 1988 78 WP MM LEE 1988-09-22 03:00:00 TS 19.4564 130.104 main 829 789 PPPP______P___ WP181988 19.3998 130.107 55 0 19.6149 130.042 3 45 990 0 9 125 125 19.4225 130.135 3 48 985 19.4723 130.200 TS 40 992 19.3724 130.033 2 55 9 300
1988260N15157 1988 78 WP MM LEE 1988-09-22 06:00:00 TS 19.6710 129.694 45 990 tokyo main 791 751 OOOO______P___ jtwc_wp WP181988 19.6000 129.700 55 0 19.8000 129.700 3 45 990 0 9 125 125 0 19.7000 129.700 3 48 985 19.7000 129.800 TS 40 992 19.5550 129.569 2 55 9 297
1988260N15157 1988 78 WP MM LEE 1988-09-22 09:00:00 TS 19.8489 129.280 main 751 715 PPPP______P___ WP181988 19.7776 129.200 55 0 19.9499 129.350 3 45 990 0 9 125 125 19.8497 129.350 3 48 985 19.9072 129.380 TS 45 988 19.7600 129.121 2 55 9 295
1988260N15157 1988 78 WP MM LEE 1988-09-22 12:00:00 TS 20.0400 128.860 45 990 tokyo main 715 674 OOOO______O___ jtwc_wp WP181988 20.0000 128.700 55 0 20.1000 129.000 3 45 990 0 9 125 125 0 20.0000 129.000 3 48 985 20.1000 128.900 STS 50 985 20.0000 128.700 2 55 9 298
1988260N15157 1988 78 WP MM LEE 1988-09-22 15:00:00 TS 20.2912 128.399 main 674 642 PPPP______P___ WP181988 20.3349 128.270 55 0 20.2774 128.650 3 45 990 0 9 125 125 20.2926 128.543 3 53 982 20.2706 128.233 STS 52 983 20.2807 128.301 2 55 10 303
1988260N15157 1988 78 WP MM LEE 1988-09-22 18:00:00 TS 20.5794 127.986 45 990 tokyo main 646 626 OOOO______P___ jtwc_wp WP181988 20.7000 127.900 55 0 20.5000 128.300 3 45 990 0 9 125 125 0 20.6000 128.100 3 58 980 20.5000 127.700 STS 55 982 20.5972 127.933 2 55 9 312
1988260N15157 1988 78 WP MM LEE 1988-09-22 21:00:00 TS 20.8654 127.708 main 630 622 PPPP______P___ WP181988 20.9924 127.577 55 0 20.7550 127.942 3 47 990 0 9 125 125 20.7698 127.770 3 58 980 20.8696 127.654 STS 55 982 20.9402 127.598 2 55 8 323
1988260N15157 1988 78 WP MM LEE 1988-09-23 00:00:00 TS 21.2000 127.480 50 990 tokyo main 627 618 OOOO______O___ jtwc_wp WP181988 21.3000 127.300 55 0 21.1000 127.600 4 50 990 0 9 125 125 0 21.0000 127.500 3 58 980 21.3000 127.700 STS 55 982 21.3000 127.300 2 55 9 327
1988260N15157 1988 78 WP MM LEE 1988-09-23 03:00:00 TS 21.6219 127.186 main 619 577 PPPP______P___ WP181988 21.6925 127.035 55 0 21.6001 127.248 4 47 990 0 9 125 125 21.4624 127.243 3 53 982 21.7226 127.453 STS 50 986 21.6320 126.951 2 55 10 328
1988260N15157 1988 78 WP MM LEE 1988-09-23 06:00:00 TS 22.0564 126.910 45 990 tokyo main 575 542 OOOO______P___ jtwc_wp WP181988 22.1000 126.800 55 0 22.1000 127.000 3 45 990 0 9 125 125 0 22.0000 127.000 3 48 985 22.1000 127.100 TS 45 990 21.9822 126.650 2 55 9 328
1988260N15157 1988 78 WP MM LEE 1988-09-23 09:00:00 TS 22.4018 126.669 main 542 509 PPPP______P___ WP181988 22.4125 126.548 55 0 22.4224 126.940 3 45 991 0 9 137 100 22.4726 126.720 3 48 985 22.3352 126.690 TS 45 990 22.3662 126.449 2 55 8 334
1988260N15157 1988 78 WP MM LEE 1988-09-23 12:00:00 TS 22.7600 126.540 45 992 tokyo main 505 489 OOOO______O___ jtwc_wp WP181988 22.8000 126.400 55 0 22.7000 127.000 3 45 992 0 2 150 75 0 22.9000 126.500 3 48 985 22.6000 126.400 TS 45 990 22.8000 126.400 2 55 8 351
1988260N15157 1988 78 WP MM LEE 1988-09-23 15:00:00 TS 23.2204 126.534 main 489 486 PPPP______P___ WP181988 23.4346 126.388 55 0 23.0424 127.055 3 42 993 0 2 150 62 23.2422 126.338 3 48 985 23.0921 126.372 TS 42 991 23.2909 126.514 2 52 10 10
1988260N15157 1988 78 WP MM LEE 1988-09-23 18:00:00 TS 23.7063 126.718 40 994 tokyo main 495 495 OOOO______P___ jtwc_wp WP181988 24.1000 126.600 55 0 23.4000 127.200 3 40 994 0 2 150 50 0 23.6000 126.400 3 48 985 23.6000 126.600 TS 40 992 23.8314 126.788 2 50 11 31
1988260N15157 1988 78 WP MM LEE 1988-09-23 21:00:00 TS 24.1220 127.122 main 525 525 PPPP______P___ WP181988 24.5503 127.083 50 0 23.6975 127.463 3 40 995 0 2 137 55 24.0777 126.802 3 43 987 23.8780 127.070 TS 37 993 24.4063 127.193 2 47 12 44
1988260N15157 1988 78 WP MM LEE 1988-09-24 00:00:00 TS 24.5800 127.640 40 996 tokyo main 566 566 OOOO______O___ jtwc_wp WP181988 25.0000 127.700 45 0 24.1000 127.800 3 40 996 0 2 125 60 0 24.6000 127.400 2 38 990 24.2000 127.600 TS 35 994 25.0000 127.700 2 45 14 40
1988260N15157 1988 78 WP MM LEE 1988-09-24 03:00:00 TS 25.1877 128.106 main 614 614 PPPP______P___ WP181988 25.6344 128.220 42 0 24.7773 128.120 3 37 996 0 2 102 55 25.1077 128.007 2 38 992 24.8195 127.900 TS 35 995 25.5995 128.281 2 43 15 36
1988260N15157 1988 78 WP MM LEE 1988-09-24 06:00:00 TS 25.7883 128.597 35 996 tokyo main 615 558 OOOO______P___ jtwc_wp WP181988 26.3000 128.800 40 0 25.5000 128.500 3 35 996 0 3 80 50 0 25.6000 128.600 2 38 994 25.5000 128.200 TS 35 996 26.2006 128.919 2 42 14 40
1988260N15157 1988 78 WP MM LEE 1988-09-24 09:00:00 TS 26.2483 129.100 main 558 491 PPPP______P___ WP181988 26.8812 129.509 40 0 25.9921 128.942 3 35 996 0 3 80 50 26.0116 129.030 2 33 996 26.0482 128.649 TS 32 997 26.8014 129.597 2 41 13 46
1988260N15157 1988 78 WP MM LEE 1988-09-24 12:00:00 TS 26.6800 129.630 35 996 tokyo main 491 439 OOOO______O___ jtwc_wp WP181988 27.4000 130.300 40 0 26.5000 129.500 3 35 996 0 3 80 50 0 26.5000 129.500 1 29 998 26.5000 129.200 TD 30 998 27.4000 130.300 2 40 13 46
1988260N15157 1988 78 WP MM LEE 1988-09-24 15:00:00 TS 27.1794 130.177 main 426 346 _PP___________ WP181988 -1 27.1745 130.177 3 35 997 0 3 80 50 27.1890 130.179 1 29 998 TD 2 18 43
1988260N15157 1988 78 WP MM LEE 1988-09-24 18:00:00 TS 28.0000 131.000 35 998 tokyo main 336 257 _OO___________ -1 28.0000 131.000 3 35 998 0 3 80 50 0 28.0000 131.000 1 29 998 2 24 41
1988260N15157 1988 78 WP MM LEE 1988-09-24 21:00:00 TS 28.9643 131.958 main 255 220 _P____________ -1 28.9643 131.958 3 999 0 3 1 2 27 41
1988260N15157 1988 78 WP MM LEE 1988-09-25 00:00:00 TS 30.0000 133.000 1000 tokyo main 218 _O____________ -1 30.0000 133.000 2 1000 0 0 0 28 41

デジタル台風データ・検索

IBTrACS Databaseについて

本データベースは、米国NOAAが公開する1842年以降の世界の熱帯低気圧のベストトラックデータアーカイブInternational Best Track Archive for Climate Stewardship (IBTrACS)を、ウェブで閲覧しやすい形式に変換したものです。

最終更新日:2021-12-03